sensor_id;sensor_type;location;lat;lon;timestamp;temperature;humidity
3334;DHT22;1679;50.392;8.008;2023-10-19T00:00:37;9.90;99.90
3334;DHT22;1679;50.392;8.008;2023-10-19T00:03:12;9.90;99.90
3334;DHT22;1679;50.392;8.008;2023-10-19T00:05:38;9.90;99.90
3334;DHT22;1679;50.392;8.008;2023-10-19T00:08:05;9.90;99.90
3334;DHT22;1679;50.392;8.008;2023-10-19T00:10:41;9.90;99.90
3334;DHT22;1679;50.392;8.008;2023-10-19T00:13:13;9.90;99.90
3334;DHT22;1679;50.392;8.008;2023-10-19T00:15:41;10.00;99.90
3334;DHT22;1679;50.392;8.008;2023-10-19T00:18:12;10.00;99.90
3334;DHT22;1679;50.392;8.008;2023-10-19T00:20:43;10.10;99.90
3334;DHT22;1679;50.392;8.008;2023-10-19T00:23:14;10.00;99.90
3334;DHT22;1679;50.392;8.008;2023-10-19T00:25:45;10.10;99.90
3334;DHT22;1679;50.392;8.008;2023-10-19T00:28:19;10.00;99.90
3334;DHT22;1679;50.392;8.008;2023-10-19T00:30:45;10.00;99.90
3334;DHT22;1679;50.392;8.008;2023-10-19T00:33:13;10.00;99.90
3334;DHT22;1679;50.392;8.008;2023-10-19T00:35:47;10.00;99.90
3334;DHT22;1679;50.392;8.008;2023-10-19T00:38:15;10.10;99.90
3334;DHT22;1679;50.392;8.008;2023-10-19T00:41:08;10.10;99.90
3334;DHT22;1679;50.392;8.008;2023-10-19T00:43:45;10.10;99.90
3334;DHT22;1679;50.392;8.008;2023-10-19T00:46:12;10.10;99.90
3334;DHT22;1679;50.392;8.008;2023-10-19T00:48:55;10.10;99.90
3334;DHT22;1679;50.392;8.008;2023-10-19T00:51:23;10.10;99.90
3334;DHT22;1679;50.392;8.008;2023-10-19T00:53:54;10.10;99.90
3334;DHT22;1679;50.392;8.008;2023-10-19T00:56:21;10.10;99.90
3334;DHT22;1679;50.392;8.008;2023-10-19T00:58:51;10.10;99.90
3334;DHT22;1679;50.392;8.008;2023-10-19T01:01:23;10.10;99.90
3334;DHT22;1679;50.392;8.008;2023-10-19T01:03:53;10.20;99.90
3334;DHT22;1679;50.392;8.008;2023-10-19T01:06:23;10.20;99.90
3334;DHT22;1679;50.392;8.008;2023-10-19T01:08:49;10.30;99.90
3334;DHT22;1679;50.392;8.008;2023-10-19T01:11:16;10.30;99.90
3334;DHT22;1679;50.392;8.008;2023-10-19T01:13:46;10.30;99.90
3334;DHT22;1679;50.392;8.008;2023-10-19T01:16:13;10.30;99.90
3334;DHT22;1679;50.392;8.008;2023-10-19T01:18:49;10.30;99.90
3334;DHT22;1679;50.392;8.008;2023-10-19T01:21:22;10.30;99.90
3334;DHT22;1679;50.392;8.008;2023-10-19T01:23:50;10.30;99.90
3334;DHT22;1679;50.392;8.008;2023-10-19T01:26:16;10.30;99.90
3334;DHT22;1679;50.392;8.008;2023-10-19T01:28:51;10.40;99.90
3334;DHT22;1679;50.392;8.008;2023-10-19T01:31:26;10.40;99.90
3334;DHT22;1679;50.392;8.008;2023-10-19T01:33:55;10.50;99.90
3334;DHT22;1679;50.392;8.008;2023-10-19T01:36:22;10.40;99.90
3334;DHT22;1679;50.392;8.008;2023-10-19T01:38:48;10.40;99.90
3334;DHT22;1679;50.392;8.008;2023-10-19T01:41:14;10.50;99.90
3334;DHT22;1679;50.392;8.008;2023-10-19T01:43:44;10.50;99.90
3334;DHT22;1679;50.392;8.008;2023-10-19T01:46:12;10.50;99.90
3334;DHT22;1679;50.392;8.008;2023-10-19T01:48:42;10.50;99.90
3334;DHT22;1679;50.392;8.008;2023-10-19T01:51:09;10.60;99.90
3334;DHT22;1679;50.392;8.008;2023-10-19T01:53:42;10.60;99.90
3334;DHT22;1679;50.392;8.008;2023-10-19T01:56:11;10.50;99.90
3334;DHT22;1679;50.392;8.008;2023-10-19T01:58:40;10.50;99.90
3334;DHT22;1679;50.392;8.008;2023-10-19T02:01:07;10.50;99.90
3334;DHT22;1679;50.392;8.008;2023-10-19T02:03:39;10.50;99.90
3334;DHT22;1679;50.392;8.008;2023-10-19T02:06:13;10.50;99.90
3334;DHT22;1679;50.392;8.008;2023-10-19T02:08:46;10.50;99.90
3334;DHT22;1679;50.392;8.008;2023-10-19T02:11:22;10.50;99.90
3334;DHT22;1679;50.392;8.008;2023-10-19T02:13:49;10.50;99.90
3334;DHT22;1679;50.392;8.008;2023-10-19T02:16:19;10.50;99.90
3334;DHT22;1679;50.392;8.008;2023-10-19T02:18:51;10.60;99.90
3334;DHT22;1679;50.392;8.008;2023-10-19T02:21:17;10.50;99.90
3334;DHT22;1679;50.392;8.008;2023-10-19T02:23:52;10.60;99.90
3334;DHT22;1679;50.392;8.008;2023-10-19T02:26:21;10.60;99.90
3334;DHT22;1679;50.392;8.008;2023-10-19T02:28:55;10.60;99.90
3334;DHT22;1679;50.392;8.008;2023-10-19T02:31:22;10.60;99.90
3334;DHT22;1679;50.392;8.008;2023-10-19T02:33:49;10.60;99.90
3334;DHT22;1679;50.392;8.008;2023-10-19T02:36:24;10.60;99.90
3334;DHT22;1679;50.392;8.008;2023-10-19T02:38:54;10.70;99.90
3334;DHT22;1679;50.392;8.008;2023-10-19T02:41:19;10.70;99.90
3334;DHT22;1679;50.392;8.008;2023-10-19T02:43:46;10.70;99.90
3334;DHT22;1679;50.392;8.008;2023-10-19T02:46:16;10.70;99.90
3334;DHT22;1679;50.392;8.008;2023-10-19T02:48:43;10.80;99.90
3334;DHT22;1679;50.392;8.008;2023-10-19T02:51:15;10.70;99.90
3334;DHT22;1679;50.392;8.008;2023-10-19T02:53:41;10.80;99.90
3334;DHT22;1679;50.392;8.008;2023-10-19T02:56:14;10.70;99.90
3334;DHT22;1679;50.392;8.008;2023-10-19T02:58:43;10.80;99.90
3334;DHT22;1679;50.392;8.008;2023-10-19T03:01:19;10.90;99.90
3334;DHT22;1679;50.392;8.008;2023-10-19T03:03:53;10.90;99.90
3334;DHT22;1679;50.392;8.008;2023-10-19T03:06:22;10.90;99.90
3334;DHT22;1679;50.392;8.008;2023-10-19T03:08:48;11.00;99.90
3334;DHT22;1679;50.392;8.008;2023-10-19T03:11:23;11.00;99.90
3334;DHT22;1679;50.392;8.008;2023-10-19T03:13:49;11.00;99.90
3334;DHT22;1679;50.392;8.008;2023-10-19T03:16:15;10.90;99.90
3334;DHT22;1679;50.392;8.008;2023-10-19T03:18:41;10.90;99.90
3334;DHT22;1679;50.392;8.008;2023-10-19T03:21:07;11.00;99.90
3334;DHT22;1679;50.392;8.008;2023-10-19T03:23:34;11.10;99.90
3334;DHT22;1679;50.392;8.008;2023-10-19T03:26:00;11.00;99.90
3334;DHT22;1679;50.392;8.008;2023-10-19T03:28:44;11.10;99.90
3334;DHT22;1679;50.392;8.008;2023-10-19T03:31:11;11.00;99.90
3334;DHT22;1679;50.392;8.008;2023-10-19T03:33:44;11.00;99.90
3334;DHT22;1679;50.392;8.008;2023-10-19T03:36:10;11.00;99.90
3334;DHT22;1679;50.392;8.008;2023-10-19T03:38:39;11.00;99.90
3334;DHT22;1679;50.392;8.008;2023-10-19T03:41:06;11.00;99.90
3334;DHT22;1679;50.392;8.008;2023-10-19T03:43:33;11.00;99.90
3334;DHT22;1679;50.392;8.008;2023-10-19T03:46:02;10.90;99.90
3334;DHT22;1679;50.392;8.008;2023-10-19T03:48:30;10.90;99.90
3334;DHT22;1679;50.392;8.008;2023-10-19T03:51:02;10.90;99.90
3334;DHT22;1679;50.392;8.008;2023-10-19T03:53:28;11.00;99.90
3334;DHT22;1679;50.392;8.008;2023-10-19T03:55:53;10.90;99.90
3334;DHT22;1679;50.392;8.008;2023-10-19T03:58:21;11.00;99.90
3334;DHT22;1679;50.392;8.008;2023-10-19T04:00:47;10.90;99.90
3334;DHT22;1679;50.392;8.008;2023-10-19T04:03:15;10.90;99.90
3334;DHT22;1679;50.392;8.008;2023-10-19T04:05:45;10.90;99.90
3334;DHT22;1679;50.392;8.008;2023-10-19T04:08:13;10.90;99.90
3334;DHT22;1679;50.392;8.008;2023-10-19T04:10:40;10.80;99.90
3334;DHT22;1679;50.392;8.008;2023-10-19T04:13:32;10.90;99.90
3334;DHT22;1679;50.392;8.008;2023-10-19T04:15:57;10.80;99.90
3334;DHT22;1679;50.392;8.008;2023-10-19T04:18:24;10.90;99.90
3334;DHT22;1679;50.392;8.008;2023-10-19T04:20:51;10.80;99.90
3334;DHT22;1679;50.392;8.008;2023-10-19T04:23:20;10.80;99.90
3334;DHT22;1679;50.392;8.008;2023-10-19T04:25:47;10.80;99.90
3334;DHT22;1679;50.392;8.008;2023-10-19T04:28:13;10.80;99.90
3334;DHT22;1679;50.392;8.008;2023-10-19T04:30:46;10.90;99.90
3334;DHT22;1679;50.392;8.008;2023-10-19T04:33:13;11.00;99.90
3334;DHT22;1679;50.392;8.008;2023-10-19T04:35:42;11.00;99.90
3334;DHT22;1679;50.392;8.008;2023-10-19T04:38:07;11.00;99.90
3334;DHT22;1679;50.392;8.008;2023-10-19T04:40:33;11.00;99.90
3334;DHT22;1679;50.392;8.008;2023-10-19T04:43:01;11.00;99.90
3334;DHT22;1679;50.392;8.008;2023-10-19T04:45:27;11.00;99.90
3334;DHT22;1679;50.392;8.008;2023-10-19T04:47:52;10.90;99.90
3334;DHT22;1679;50.392;8.008;2023-10-19T04:50:18;10.90;99.90
3334;DHT22;1679;50.392;8.008;2023-10-19T04:52:44;10.90;99.90
3334;DHT22;1679;50.392;8.008;2023-10-19T04:55:09;10.90;99.90
3334;DHT22;1679;50.392;8.008;2023-10-19T04:57:35;11.00;99.90
3334;DHT22;1679;50.392;8.008;2023-10-19T05:00:00;11.00;99.90
3334;DHT22;1679;50.392;8.008;2023-10-19T05:02:26;11.00;99.90
3334;DHT22;1679;50.392;8.008;2023-10-19T05:04:51;11.00;99.90
3334;DHT22;1679;50.392;8.008;2023-10-19T05:07:17;11.10;99.90
3334;DHT22;1679;50.392;8.008;2023-10-19T05:09:45;11.10;99.90
3334;DHT22;1679;50.392;8.008;2023-10-19T05:12:11;11.00;99.90
3334;DHT22;1679;50.392;8.008;2023-10-19T05:14:40;11.10;99.90
3334;DHT22;1679;50.392;8.008;2023-10-19T05:17:08;11.10;99.90
3334;DHT22;1679;50.392;8.008;2023-10-19T05:19:38;11.20;99.90
3334;DHT22;1679;50.392;8.008;2023-10-19T05:22:07;11.10;99.90
3334;DHT22;1679;50.392;8.008;2023-10-19T05:24:33;11.20;99.90
3334;DHT22;1679;50.392;8.008;2023-10-19T05:26:59;11.20;99.90
3334;DHT22;1679;50.392;8.008;2023-10-19T05:29:26;11.30;99.90
3334;DHT22;1679;50.392;8.008;2023-10-19T05:31:53;11.20;99.90
3334;DHT22;1679;50.392;8.008;2023-10-19T05:34:23;11.20;99.90
3334;DHT22;1679;50.392;8.008;2023-10-19T05:36:49;11.20;99.90
3334;DHT22;1679;50.392;8.008;2023-10-19T05:39:16;11.20;99.90
3334;DHT22;1679;50.392;8.008;2023-10-19T05:41:42;11.20;99.90
3334;DHT22;1679;50.392;8.008;2023-10-19T05:44:08;11.20;99.90
3334;DHT22;1679;50.392;8.008;2023-10-19T05:46:34;11.20;99.90
3334;DHT22;1679;50.392;8.008;2023-10-19T05:48:59;11.10;99.90
3334;DHT22;1679;50.392;8.008;2023-10-19T05:51:27;11.20;99.90
3334;DHT22;1679;50.392;8.008;2023-10-19T05:53:52;11.10;99.90
3334;DHT22;1679;50.392;8.008;2023-10-19T05:56:19;11.10;99.90
3334;DHT22;1679;50.392;8.008;2023-10-19T05:58:47;11.10;99.90
3334;DHT22;1679;50.392;8.008;2023-10-19T06:01:17;11.10;99.90
3334;DHT22;1679;50.392;8.008;2023-10-19T06:03:43;11.10;99.90
3334;DHT22;1679;50.392;8.008;2023-10-19T06:06:11;11.10;99.90
3334;DHT22;1679;50.392;8.008;2023-10-19T06:08:36;11.00;99.90
3334;DHT22;1679;50.392;8.008;2023-10-19T06:11:02;11.10;99.90
3334;DHT22;1679;50.392;8.008;2023-10-19T06:13:28;11.10;99.90
3334;DHT22;1679;50.392;8.008;2023-10-19T06:15:54;11.10;99.90
3334;DHT22;1679;50.392;8.008;2023-10-19T06:18:20;11.10;99.90
3334;DHT22;1679;50.392;8.008;2023-10-19T06:20:46;11.20;99.90
3334;DHT22;1679;50.392;8.008;2023-10-19T06:23:12;11.20;99.90
3334;DHT22;1679;50.392;8.008;2023-10-19T06:25:38;11.20;99.90
3334;DHT22;1679;50.392;8.008;2023-10-19T06:28:05;11.20;99.90
3334;DHT22;1679;50.392;8.008;2023-10-19T06:30:32;11.20;99.90
3334;DHT22;1679;50.392;8.008;2023-10-19T06:32:59;11.20;99.90
3334;DHT22;1679;50.392;8.008;2023-10-19T06:35:26;11.30;99.90
3334;DHT22;1679;50.392;8.008;2023-10-19T06:37:53;11.30;99.90
3334;DHT22;1679;50.392;8.008;2023-10-19T06:40:22;11.40;99.90
3334;DHT22;1679;50.392;8.008;2023-10-19T06:42:49;11.40;99.90
3334;DHT22;1679;50.392;8.008;2023-10-19T06:45:16;11.40;99.90
3334;DHT22;1679;50.392;8.008;2023-10-19T06:47:46;11.50;99.90
3334;DHT22;1679;50.392;8.008;2023-10-19T06:50:17;11.50;99.90
3334;DHT22;1679;50.392;8.008;2023-10-19T06:52:44;11.50;99.90
3334;DHT22;1679;50.392;8.008;2023-10-19T06:55:11;11.50;99.90
3334;DHT22;1679;50.392;8.008;2023-10-19T06:57:47;11.60;99.90
3334;DHT22;1679;50.392;8.008;2023-10-19T07:00:14;11.60;99.90
3334;DHT22;1679;50.392;8.008;2023-10-19T07:02:41;11.60;99.90
3334;DHT22;1679;50.392;8.008;2023-10-19T07:05:08;11.60;99.90
3334;DHT22;1679;50.392;8.008;2023-10-19T07:07:54;11.70;99.90
3334;DHT22;1679;50.392;8.008;2023-10-19T07:10:20;11.70;99.90
3334;DHT22;1679;50.392;8.008;2023-10-19T07:12:54;11.80;99.90
3334;DHT22;1679;50.392;8.008;2023-10-19T07:15:20;11.90;99.90
3334;DHT22;1679;50.392;8.008;2023-10-19T07:17:48;11.90;99.90
3334;DHT22;1679;50.392;8.008;2023-10-19T07:20:16;11.90;99.90
3334;DHT22;1679;50.392;8.008;2023-10-19T07:22:52;12.00;99.90
3334;DHT22;1679;50.392;8.008;2023-10-19T07:25:18;12.00;99.90
3334;DHT22;1679;50.392;8.008;2023-10-19T07:27:50;12.10;99.90
3334;DHT22;1679;50.392;8.008;2023-10-19T07:30:17;12.10;99.90
3334;DHT22;1679;50.392;8.008;2023-10-19T07:32:50;12.10;99.90
3334;DHT22;1679;50.392;8.008;2023-10-19T07:35:19;12.10;99.90
3334;DHT22;1679;50.392;8.008;2023-10-19T07:37:45;12.20;99.90
3334;DHT22;1679;50.392;8.008;2023-10-19T07:40:11;12.20;99.90
3334;DHT22;1679;50.392;8.008;2023-10-19T07:42:40;12.40;99.90
3334;DHT22;1679;50.392;8.008;2023-10-19T07:45:06;12.40;99.90
3334;DHT22;1679;50.392;8.008;2023-10-19T07:47:38;12.50;99.90
3334;DHT22;1679;50.392;8.008;2023-10-19T07:50:14;12.60;99.90
3334;DHT22;1679;50.392;8.008;2023-10-19T07:52:47;12.70;99.90
3334;DHT22;1679;50.392;8.008;2023-10-19T07:55:14;12.90;99.90
3334;DHT22;1679;50.392;8.008;2023-10-19T07:57:40;13.10;99.90
3334;DHT22;1679;50.392;8.008;2023-10-19T08:00:07;13.10;99.90
3334;DHT22;1679;50.392;8.008;2023-10-19T08:02:37;13.20;99.90
3334;DHT22;1679;50.392;8.008;2023-10-19T08:05:07;13.40;99.90
3334;DHT22;1679;50.392;8.008;2023-10-19T08:07:33;13.50;99.90
3334;DHT22;1679;50.392;8.008;2023-10-19T08:10:02;13.40;99.90
3334;DHT22;1679;50.392;8.008;2023-10-19T08:12:31;13.40;99.90
3334;DHT22;1679;50.392;8.008;2023-10-19T08:14:59;13.40;99.90
3334;DHT22;1679;50.392;8.008;2023-10-19T08:17:25;13.50;99.90
3334;DHT22;1679;50.392;8.008;2023-10-19T08:19:50;13.50;99.90
3334;DHT22;1679;50.392;8.008;2023-10-19T08:22:16;13.60;99.90
3334;DHT22;1679;50.392;8.008;2023-10-19T08:24:41;13.50;99.90
3334;DHT22;1679;50.392;8.008;2023-10-19T08:27:11;13.40;99.90
3334;DHT22;1679;50.392;8.008;2023-10-19T08:29:39;13.40;99.90
3334;DHT22;1679;50.392;8.008;2023-10-19T08:32:04;13.20;99.90
3334;DHT22;1679;50.392;8.008;2023-10-19T08:34:34;13.20;99.90
3334;DHT22;1679;50.392;8.008;2023-10-19T08:37:01;13.10;99.90
3334;DHT22;1679;50.392;8.008;2023-10-19T08:39:28;13.00;99.90
3334;DHT22;1679;50.392;8.008;2023-10-19T08:41:54;13.10;99.90
3334;DHT22;1679;50.392;8.008;2023-10-19T08:44:24;13.20;99.90
3334;DHT22;1679;50.392;8.008;2023-10-19T08:46:51;13.40;99.90
3334;DHT22;1679;50.392;8.008;2023-10-19T08:49:17;13.60;99.90
3334;DHT22;1679;50.392;8.008;2023-10-19T08:51:46;13.80;99.90
3334;DHT22;1679;50.392;8.008;2023-10-19T08:54:12;13.90;99.90
3334;DHT22;1679;50.392;8.008;2023-10-19T08:56:41;13.90;99.90
3334;DHT22;1679;50.392;8.008;2023-10-19T08:59:08;13.90;99.90
3334;DHT22;1679;50.392;8.008;2023-10-19T09:01:36;14.20;99.90
3334;DHT22;1679;50.392;8.008;2023-10-19T09:04:02;14.50;99.90
3334;DHT22;1679;50.392;8.008;2023-10-19T09:06:36;14.90;99.90
3334;DHT22;1679;50.392;8.008;2023-10-19T09:09:12;15.30;99.90
3334;DHT22;1679;50.392;8.008;2023-10-19T09:11:48;15.30;99.90
3334;DHT22;1679;50.392;8.008;2023-10-19T09:14:31;15.60;99.90
3334;DHT22;1679;50.392;8.008;2023-10-19T09:16:59;16.10;99.90
3334;DHT22;1679;50.392;8.008;2023-10-19T09:19:45;16.20;99.90
3334;DHT22;1679;50.392;8.008;2023-10-19T09:22:15;16.30;99.90
3334;DHT22;1679;50.392;8.008;2023-10-19T09:24:45;16.40;99.90
3334;DHT22;1679;50.392;8.008;2023-10-19T09:27:11;16.70;99.90
3334;DHT22;1679;50.392;8.008;2023-10-19T09:29:39;16.80;99.90
3334;DHT22;1679;50.392;8.008;2023-10-19T09:32:07;17.00;99.90
3334;DHT22;1679;50.392;8.008;2023-10-19T09:34:34;17.10;99.90
3334;DHT22;1679;50.392;8.008;2023-10-19T09:37:00;17.00;99.90
3334;DHT22;1679;50.392;8.008;2023-10-19T09:39:35;16.80;99.90
3334;DHT22;1679;50.392;8.008;2023-10-19T09:42:09;16.60;99.90
3334;DHT22;1679;50.392;8.008;2023-10-19T09:44:43;16.50;99.90
3334;DHT22;1679;50.392;8.008;2023-10-19T09:47:11;16.30;99.90
3334;DHT22;1679;50.392;8.008;2023-10-19T09:49:40;16.20;99.90
3334;DHT22;1679;50.392;8.008;2023-10-19T09:52:07;16.40;99.90
3334;DHT22;1679;50.392;8.008;2023-10-19T09:57:46;16.30;99.90
3334;DHT22;1679;50.392;8.008;2023-10-19T10:00:09;16.40;99.90
3334;DHT22;1679;50.392;8.008;2023-10-19T10:02:44;16.00;99.90
3334;DHT22;1679;50.392;8.008;2023-10-19T10:10:48;16.10;99.90
3334;DHT22;1679;50.392;8.008;2023-10-19T10:15:58;16.10;99.90
3334;DHT22;1679;50.392;8.008;2023-10-19T10:18:24;16.00;99.90
3334;DHT22;1679;50.392;8.008;2023-10-19T10:21:11;16.00;99.90
3334;DHT22;1679;50.392;8.008;2023-10-19T10:23:48;15.90;99.90
3334;DHT22;1679;50.392;8.008;2023-10-19T10:26:16;16.00;99.90
3334;DHT22;1679;50.392;8.008;2023-10-19T10:28:46;16.00;99.90
3334;DHT22;1679;50.392;8.008;2023-10-19T10:31:20;15.90;99.90
3334;DHT22;1679;50.392;8.008;2023-10-19T10:33:51;15.90;99.90
3334;DHT22;1679;50.392;8.008;2023-10-19T10:36:20;15.90;99.90
3334;DHT22;1679;50.392;8.008;2023-10-19T10:38:50;15.80;99.90
3334;DHT22;1679;50.392;8.008;2023-10-19T10:41:25;15.90;99.90
3334;DHT22;1679;50.392;8.008;2023-10-19T10:43:56;16.00;99.90
3334;DHT22;1679;50.392;8.008;2023-10-19T10:46:23;16.10;99.90
3334;DHT22;1679;50.392;8.008;2023-10-19T10:48:49;16.10;99.90
3334;DHT22;1679;50.392;8.008;2023-10-19T10:51:26;16.20;99.90
3334;DHT22;1679;50.392;8.008;2023-10-19T10:53:55;16.10;99.90
3334;DHT22;1679;50.392;8.008;2023-10-19T10:56:22;16.20;99.90
3334;DHT22;1679;50.392;8.008;2023-10-19T10:58:50;16.30;99.90
3334;DHT22;1679;50.392;8.008;2023-10-19T11:01:27;16.30;99.90
3334;DHT22;1679;50.392;8.008;2023-10-19T11:04:06;16.30;99.90
3334;DHT22;1679;50.392;8.008;2023-10-19T11:06:32;16.30;99.90
3334;DHT22;1679;50.392;8.008;2023-10-19T11:08:57;16.40;99.90
3334;DHT22;1679;50.392;8.008;2023-10-19T11:11:23;16.40;99.90
3334;DHT22;1679;50.392;8.008;2023-10-19T11:13:48;16.30;99.90
3334;DHT22;1679;50.392;8.008;2023-10-19T11:16:22;16.40;99.90
3334;DHT22;1679;50.392;8.008;2023-10-19T11:18:49;16.60;99.90
3334;DHT22;1679;50.392;8.008;2023-10-19T11:21:15;16.70;99.90
3334;DHT22;1679;50.392;8.008;2023-10-19T11:23:49;16.90;99.90
3334;DHT22;1679;50.392;8.008;2023-10-19T11:26:20;17.00;99.90
3334;DHT22;1679;50.392;8.008;2023-10-19T11:28:46;17.00;99.90
3334;DHT22;1679;50.392;8.008;2023-10-19T11:31:21;17.00;99.90
3334;DHT22;1679;50.392;8.008;2023-10-19T11:33:51;17.00;99.90
3334;DHT22;1679;50.392;8.008;2023-10-19T11:36:18;17.00;99.90
3334;DHT22;1679;50.392;8.008;2023-10-19T11:38:45;16.90;99.90
3334;DHT22;1679;50.392;8.008;2023-10-19T11:41:12;16.90;99.90
3334;DHT22;1679;50.392;8.008;2023-10-19T11:43:39;16.80;99.90
3334;DHT22;1679;50.392;8.008;2023-10-19T11:46:06;16.90;99.90
3334;DHT22;1679;50.392;8.008;2023-10-19T11:48:36;16.90;99.90
3334;DHT22;1679;50.392;8.008;2023-10-19T11:51:03;16.90;99.90
3334;DHT22;1679;50.392;8.008;2023-10-19T11:53:36;17.00;99.90
3334;DHT22;1679;50.392;8.008;2023-10-19T11:56:06;17.00;99.90
3334;DHT22;1679;50.392;8.008;2023-10-19T11:58:36;17.10;99.90
3334;DHT22;1679;50.392;8.008;2023-10-19T12:01:04;17.10;99.90
3334;DHT22;1679;50.392;8.008;2023-10-19T12:03:34;17.20;99.90
3334;DHT22;1679;50.392;8.008;2023-10-19T12:06:20;17.20;99.90
3334;DHT22;1679;50.392;8.008;2023-10-19T12:08:48;17.30;99.90
3334;DHT22;1679;50.392;8.008;2023-10-19T12:11:13;17.20;99.90
3334;DHT22;1679;50.392;8.008;2023-10-19T12:13:44;17.20;99.90
3334;DHT22;1679;50.392;8.008;2023-10-19T12:16:13;17.10;99.90
3334;DHT22;1679;50.392;8.008;2023-10-19T12:18:41;17.10;99.90
3334;DHT22;1679;50.392;8.008;2023-10-19T12:21:07;17.00;99.90
3334;DHT22;1679;50.392;8.008;2023-10-19T12:23:39;17.00;99.90
3334;DHT22;1679;50.392;8.008;2023-10-19T12:26:05;17.00;99.90
3334;DHT22;1679;50.392;8.008;2023-10-19T12:28:39;17.10;99.90
3334;DHT22;1679;50.392;8.008;2023-10-19T12:31:07;17.10;99.90
3334;DHT22;1679;50.392;8.008;2023-10-19T12:33:35;17.20;99.90
3334;DHT22;1679;50.392;8.008;2023-10-19T12:36:01;17.20;99.90
3334;DHT22;1679;50.392;8.008;2023-10-19T12:38:43;17.30;99.90
3334;DHT22;1679;50.392;8.008;2023-10-19T12:41:09;17.30;99.90
3334;DHT22;1679;50.392;8.008;2023-10-19T12:43:34;17.30;99.90
3334;DHT22;1679;50.392;8.008;2023-10-19T12:46:01;17.30;99.90
3334;DHT22;1679;50.392;8.008;2023-10-19T12:48:27;17.30;99.90
3334;DHT22;1679;50.392;8.008;2023-10-19T12:50:59;17.30;99.90
3334;DHT22;1679;50.392;8.008;2023-10-19T12:53:25;17.40;99.90
3334;DHT22;1679;50.392;8.008;2023-10-19T12:55:51;17.40;99.90
3334;DHT22;1679;50.392;8.008;2023-10-19T12:58:17;17.40;99.90
3334;DHT22;1679;50.392;8.008;2023-10-19T13:00:45;17.40;99.90
3334;DHT22;1679;50.392;8.008;2023-10-19T13:03:14;17.30;99.90
3334;DHT22;1679;50.392;8.008;2023-10-19T13:05:42;17.20;99.90
3334;DHT22;1679;50.392;8.008;2023-10-19T13:08:10;17.20;99.90
3334;DHT22;1679;50.392;8.008;2023-10-19T13:10:39;17.00;99.90
3334;DHT22;1679;50.392;8.008;2023-10-19T13:13:08;16.90;99.90
3334;DHT22;1679;50.392;8.008;2023-10-19T13:15:37;16.80;99.90
3334;DHT22;1679;50.392;8.008;2023-10-19T13:18:05;16.80;99.90
3334;DHT22;1679;50.392;8.008;2023-10-19T13:20:36;16.70;99.90
3334;DHT22;1679;50.392;8.008;2023-10-19T13:23:06;16.60;99.90
3334;DHT22;1679;50.392;8.008;2023-10-19T13:25:38;16.50;99.90
3334;DHT22;1679;50.392;8.008;2023-10-19T13:28:09;16.50;99.90
3334;DHT22;1679;50.392;8.008;2023-10-19T13:30:42;16.50;99.90
3334;DHT22;1679;50.392;8.008;2023-10-19T13:33:08;16.50;99.90
3334;DHT22;1679;50.392;8.008;2023-10-19T13:35:36;16.50;99.90
3334;DHT22;1679;50.392;8.008;2023-10-19T13:38:04;16.60;99.90
3334;DHT22;1679;50.392;8.008;2023-10-19T13:40:29;16.70;99.90
3334;DHT22;1679;50.392;8.008;2023-10-19T13:42:57;16.80;99.90
3334;DHT22;1679;50.392;8.008;2023-10-19T13:45:23;17.00;99.90
3334;DHT22;1679;50.392;8.008;2023-10-19T13:47:49;17.00;99.90
3334;DHT22;1679;50.392;8.008;2023-10-19T13:50:17;17.10;99.90
3334;DHT22;1679;50.392;8.008;2023-10-19T13:52:43;17.00;99.90
3334;DHT22;1679;50.392;8.008;2023-10-19T13:55:10;16.90;99.90
3334;DHT22;1679;50.392;8.008;2023-10-19T13:57:38;16.80;99.90
3334;DHT22;1679;50.392;8.008;2023-10-19T14:00:06;16.70;99.90
3334;DHT22;1679;50.392;8.008;2023-10-19T14:02:33;16.70;99.90
3334;DHT22;1679;50.392;8.008;2023-10-19T14:04:58;16.70;99.90
3334;DHT22;1679;50.392;8.008;2023-10-19T14:07:26;16.60;99.90
3334;DHT22;1679;50.392;8.008;2023-10-19T14:09:52;16.60;99.90
3334;DHT22;1679;50.392;8.008;2023-10-19T14:12:18;16.50;99.90
3334;DHT22;1679;50.392;8.008;2023-10-19T14:14:43;16.40;99.90
3334;DHT22;1679;50.392;8.008;2023-10-19T14:17:09;16.30;99.90
3334;DHT22;1679;50.392;8.008;2023-10-19T14:19:34;16.20;99.90
3334;DHT22;1679;50.392;8.008;2023-10-19T14:22:00;16.20;99.90
3334;DHT22;1679;50.392;8.008;2023-10-19T14:24:26;16.10;99.90
3334;DHT22;1679;50.392;8.008;2023-10-19T14:26:51;16.00;99.90
3334;DHT22;1679;50.392;8.008;2023-10-19T14:29:19;16.00;99.90
3334;DHT22;1679;50.392;8.008;2023-10-19T14:31:45;16.00;99.90
3334;DHT22;1679;50.392;8.008;2023-10-19T14:34:11;16.00;99.90
3334;DHT22;1679;50.392;8.008;2023-10-19T14:36:37;16.00;99.90
3334;DHT22;1679;50.392;8.008;2023-10-19T14:39:03;16.00;99.90
3334;DHT22;1679;50.392;8.008;2023-10-19T14:41:30;16.00;99.90
3334;DHT22;1679;50.392;8.008;2023-10-19T14:43:56;16.00;99.90
3334;DHT22;1679;50.392;8.008;2023-10-19T14:46:21;16.00;99.90
3334;DHT22;1679;50.392;8.008;2023-10-19T14:48:48;16.10;99.90
3334;DHT22;1679;50.392;8.008;2023-10-19T14:51:14;16.10;99.90
3334;DHT22;1679;50.392;8.008;2023-10-19T14:53:40;16.20;99.90
3334;DHT22;1679;50.392;8.008;2023-10-19T14:56:06;16.30;99.90
3334;DHT22;1679;50.392;8.008;2023-10-19T14:58:33;16.30;99.90
3334;DHT22;1679;50.392;8.008;2023-10-19T15:00:58;16.30;99.90
3334;DHT22;1679;50.392;8.008;2023-10-19T15:03:24;16.20;99.90
3334;DHT22;1679;50.392;8.008;2023-10-19T15:05:51;16.20;99.90
3334;DHT22;1679;50.392;8.008;2023-10-19T15:08:17;16.10;99.90
3334;DHT22;1679;50.392;8.008;2023-10-19T15:10:45;15.90;99.90
3334;DHT22;1679;50.392;8.008;2023-10-19T15:13:10;15.80;99.90
3334;DHT22;1679;50.392;8.008;2023-10-19T15:15:36;15.80;99.90
3334;DHT22;1679;50.392;8.008;2023-10-19T15:18:04;15.80;99.90
3334;DHT22;1679;50.392;8.008;2023-10-19T15:20:31;15.70;99.90
3334;DHT22;1679;50.392;8.008;2023-10-19T15:22:57;15.70;99.90
3334;DHT22;1679;50.392;8.008;2023-10-19T15:25:23;15.70;99.90
3334;DHT22;1679;50.392;8.008;2023-10-19T15:27:52;15.80;99.90
3334;DHT22;1679;50.392;8.008;2023-10-19T15:30:19;15.80;99.90
3334;DHT22;1679;50.392;8.008;2023-10-19T15:32:47;15.80;99.90
3334;DHT22;1679;50.392;8.008;2023-10-19T15:35:14;15.80;99.90
3334;DHT22;1679;50.392;8.008;2023-10-19T15:37:41;15.90;99.90
3334;DHT22;1679;50.392;8.008;2023-10-19T15:40:08;15.80;99.90
3334;DHT22;1679;50.392;8.008;2023-10-19T15:42:40;15.80;99.90
3334;DHT22;1679;50.392;8.008;2023-10-19T15:45:13;15.80;99.90
3334;DHT22;1679;50.392;8.008;2023-10-19T15:47:40;15.80;99.90
3334;DHT22;1679;50.392;8.008;2023-10-19T15:50:09;15.80;99.90
3334;DHT22;1679;50.392;8.008;2023-10-19T15:52:35;15.80;99.90
3334;DHT22;1679;50.392;8.008;2023-10-19T15:55:02;15.70;99.90
3334;DHT22;1679;50.392;8.008;2023-10-19T15:57:28;15.60;99.90
3334;DHT22;1679;50.392;8.008;2023-10-19T15:59:55;15.50;99.90
3334;DHT22;1679;50.392;8.008;2023-10-19T16:02:21;15.50;99.90
3334;DHT22;1679;50.392;8.008;2023-10-19T16:04:47;15.50;99.90
3334;DHT22;1679;50.392;8.008;2023-10-19T16:07:14;15.40;99.90
3334;DHT22;1679;50.392;8.008;2023-10-19T16:09:43;15.30;99.90
3334;DHT22;1679;50.392;8.008;2023-10-19T16:12:10;15.30;99.90
3334;DHT22;1679;50.392;8.008;2023-10-19T16:14:37;15.30;99.90
3334;DHT22;1679;50.392;8.008;2023-10-19T16:17:03;15.30;99.90
3334;DHT22;1679;50.392;8.008;2023-10-19T16:19:29;15.20;99.90
3334;DHT22;1679;50.392;8.008;2023-10-19T16:21:56;15.20;99.90